Sun-Tan Village, FL

3:19 PM EST on December 08, 2016 (GMT -0500)
U of Miami Health System WeatherSTEM | | Change Station

Elev 68 ft 25.79 °N, 80.22 °W | Updated 3 minutes ago

Partly Cloudy
Partly Cloudy
74.7 °F
Feels Like 74 °F
N
3.0
Wind Variable Wind from NW

Today
High -- | Low -- °F
--% Chance of Precip.
Yesterday
High -- | Low -- °F
Precip. -- in
Pressure 30.03 in
Visibility 10.0 miles
Clouds Scattered Clouds 2500 ft
Scattered Clouds 4000 ft
Scattered Clouds 9000 ft
Heat Index 74 °F
Dew Point 71 °F
Humidity 88%
Rainfall 1.40 in
Snow Depth Not available.
6:56 AM 5:30 PM
Waxing Gibbous, 66% visible
METAR KMIA 081953Z 34007KT 10SM SCT025CB SCT040 SCT090 29/22 A3003 RMK AO2 SLP167 CB NE-SE MOV E TCU S-DSNT SW T02890222
Pressure 30.03 in
Visibility 10.0 miles
Clouds Scattered Clouds 2500 ft
Scattered Clouds 4000 ft
Scattered Clouds 9000 ft
Heat Index 74 °F
Dew Point 71 °F
Humidity 88%
Rainfall 1.40 in
Snow Depth Not available.
6:56 AM 5:30 PM
Waxing Gibbous, 66% visible
METAR KMIA 081953Z 34007KT 10SM SCT025CB SCT040 SCT090 29/22 A3003 RMK AO2 SLP167 CB NE-SE MOV E TCU S-DSNT SW T02890222

10-Day Weather Forecast

Almanac

Astronomy

Dec. 08, 2016 Rise Set
Actual Time
Civil Twilight
Nautical Twilight
Astronomical Twilight
Moon
Length of Visible Light
Length of Day
Tomorrow will be .
, % of the Moon is Illuminated

Today's Extremes

State Highs State Lows

Community

WunderPhotos

Upload Photos

1,956,277 photos uploaded!

WunderBlog® & News

Nearby

Air Quality

  Air Quality AQ Index Pollutant
Not available.

Snow Depth

Station Depth Elevation

Earthquake Activity

City Distance Mag. Time & Date
Minimum magnitude displayed is 2.5.

Coastal Water Temperatures

Place Temperature

Stations

Nearby Weather Stations

Station Location Temp. Windchill Dew Point Humidity Wind Precip. Elev Updated Type
                   

Watches & Warnings

There are currently no watches in effect.